Time;durP1;ratioP1;P1;durP2;ratioP2;P2;SDS_P1;SDS_P2;PMS_P1;PMS_P2;Temp;Humidity;BMP_temperature;BMP_pressure;BME280_temperature;BME280_humidity;BME280_pressure;Samples;Min_cycle;Max_cycle;Signal;HPM_P1;HPM_P2
2023/04/25 00:01:49;;;;;;;5.57;2.63;;;;;;;5.36;98.76;101105.41;6098760;23;20027;-79
2023/04/25 00:04:15;;;;;;;9.20;2.42;;;;;;;5.32;98.82;101100.19;6073558;23;20447;-80
2023/04/25 00:06:42;;;;;;;9.57;3.10;;;;;;;5.30;99.05;101107.00;6100800;23;20023;-80
2023/04/25 00:09:10;;;;;;;9.05;3.10;;;;;;;5.30;99.30;101112.28;6074799;23;20022;-80
2023/04/25 00:11:37;;;;;;;10.65;3.10;;;;;;;5.27;99.07;101113.81;6101175;23;20043;-80
2023/04/25 00:14:04;;;;;;;12.18;2.83;;;;;;;5.24;99.33;101117.22;6050652;23;20062;-80
2023/04/25 00:16:33;;;;;;;12.27;3.08;;;;;;;5.26;99.22;101114.19;6100626;23;20106;-80
2023/04/25 00:19:02;;;;;;;13.02;2.92;;;;;;;5.28;99.42;101115.31;6100293;23;20098;-80
2023/04/25 00:21:31;;;;;;;8.73;2.85;;;;;;;5.29;99.35;101116.81;6100580;23;20078;-80
2023/04/25 00:23:58;;;;;;;14.20;3.28;;;;;;;5.27;99.58;101121.72;6100211;23;20038;-80
2023/04/25 00:26:24;;;;;;;13.40;2.92;;;;;;;5.27;99.39;101128.91;6101106;23;20410;-80
2023/04/25 00:28:51;;;;;;;9.98;3.47;;;;;;;5.27;99.16;101120.97;6100532;23;20023;-80
2023/04/25 00:31:18;;;;;;;5.43;2.55;;;;;;;5.29;99.27;101119.44;6073907;23;20027;-80
2023/04/25 00:33:45;;;;;;;13.20;2.65;;;;;;;5.30;98.92;101120.19;6101169;23;20482;-80
2023/04/25 00:36:11;;;;;;;8.90;3.92;;;;;;;5.28;98.94;101115.31;6100494;23;20382;-80
2023/04/25 00:38:38;;;;;;;12.48;3.17;;;;;;;5.27;98.81;101121.72;6100916;23;20019;-80
2023/04/25 00:41:07;;;;;;;16.15;3.42;;;;;;;5.25;98.85;101124.00;6100329;23;20465;-80
2023/04/25 00:43:34;;;;;;;11.23;3.10;;;;;;;5.23;98.89;101125.53;6074843;23;20047;-80
2023/04/25 00:46:01;;;;;;;8.50;2.63;;;;;;;5.21;99.05;101125.94;6098684;23;20107;-80
2023/04/25 00:48:27;;;;;;;14.43;3.05;;;;;;;5.18;98.84;101131.28;6100770;23;20025;-80
2023/04/25 00:50:57;;;;;;;7.15;2.83;;;;;;;5.17;98.87;101129.78;6075224;23;20026;-80
2023/04/25 00:53:26;;;;;;;9.90;3.33;;;;;;;5.16;98.76;101134.31;6101100;23;20053;-80
2023/04/25 00:55:53;;;;;;;13.52;3.70;;;;;;;5.17;98.92;101125.25;6100618;23;20021;-80
2023/04/25 00:58:21;;;;;;;9.18;3.90;;;;;;;5.18;98.79;101126.00;6069333;23;20023;-80
2023/04/25 01:00:50;;;;;;;11.38;3.05;;;;;;;5.15;98.59;101137.34;6069932;23;20466;-80
2023/04/25 01:03:19;;;;;;;9.10;3.22;;;;;;;5.15;98.40;101130.16;6071489;23;20027;-80
2023/04/25 01:05:47;;;;;;;12.43;3.10;;;;;;;5.13;98.31;101126.41;6069875;23;20035;-80
2023/04/25 01:08:14;;;;;;;13.07;3.30;;;;;;;5.12;98.31;101122.28;6069950;23;20034;-80
2023/04/25 01:10:41;;;;;;;7.45;2.67;;;;;;;5.08;98.19;101127.59;6070385;23;20075;-80
2023/04/25 01:13:08;;;;;;;9.88;2.85;;;;;;;5.07;98.25;101131.38;6069192;23;20083;-80
2023/04/25 01:15:35;;;;;;;8.65;2.92;;;;;;;5.03;98.26;101133.28;6069488;23;20027;-80
2023/04/25 01:18:05;;;;;;;14.55;2.95;;;;;;;5.00;98.18;101132.19;6070725;23;20022;-80
2023/04/25 01:20:33;;;;;;;7.60;3.45;;;;;;;5.00;98.00;101137.47;6071956;23;19999;-80
2023/04/25 01:23:00;;;;;;;9.95;3.20;;;;;;;4.95;97.75;101140.50;6069817;23;20492;-80
2023/04/25 01:25:27;;;;;;;16.75;2.88;;;;;;;4.92;97.88;101140.53;6072014;23;20015;-80
2023/04/25 01:27:53;;;;;;;10.02;3.08;;;;;;;4.90;97.82;101148.09;6069056;23;20090;-80
2023/04/25 01:30:20;;;;;;;13.07;2.85;;;;;;;4.86;97.40;101145.50;6069461;23;20027;-80
2023/04/25 01:32:47;;;;;;;12.18;2.75;;;;;;;4.84;97.24;101152.28;6070128;23;20458;-80
2023/04/25 01:35:14;;;;;;;10.07;3.22;;;;;;;4.77;97.74;101147.84;6069681;23;20111;-80
2023/04/25 01:37:42;;;;;;;8.98;3.25;;;;;;;4.73;97.71;101149.75;6071998;23;20015;-80
2023/04/25 01:40:12;;;;;;;9.48;3.00;;;;;;;4.70;97.73;101150.53;6069037;23;20079;-81
2023/04/25 01:42:42;;;;;;;10.30;2.85;;;;;;;4.67;97.62;101146.78;6071128;23;20031;-80
2023/04/25 01:45:10;;;;;;;8.77;2.70;;;;;;;4.65;97.75;101148.31;6068978;23;20483;-80
2023/04/25 01:47:39;;;;;;;14.07;3.30;;;;;;;4.62;97.54;101154.34;6071704;23;20082;-80
2023/04/25 01:50:07;;;;;;;12.48;3.10;;;;;;;4.61;97.51;101158.13;6068857;23;20023;-80
2023/04/25 01:52:35;;;;;;;10.30;2.95;;;;;;;4.60;97.23;101161.91;6069712;23;20027;-80
2023/04/25 01:55:03;;;;;;;10.35;2.78;;;;;;;4.56;97.44;101161.19;6068987;23;20016;-80
2023/04/25 01:57:32;;;;;;;9.00;3.00;;;;;;;4.54;97.17;101166.09;6045687;23;20471;-80
2023/04/25 02:00:02;;;;;;;8.00;3.03;;;;;;;4.50;97.29;101160.09;6068804;23;20471;-80
2023/04/25 02:02:38;;;;;;;10.57;3.10;;;;;;;4.45;97.33;101163.13;6071799;23;20030;-80
2023/04/25 02:05:13;;;;;;;8.48;2.65;;;;;;;4.42;97.61;101163.91;6069662;23;20115;-80
2023/04/25 02:07:42;;;;;;;10.65;2.83;;;;;;;4.40;97.42;101164.28;6069651;23;20039;-80
2023/04/25 02:10:09;;;;;;;12.90;3.00;;;;;;;4.37;97.60;101178.25;6068950;23;20079;-80
2023/04/25 02:12:44;;;;;;;13.70;2.95;;;;;;;4.34;97.63;101169.25;6069117;23;20118;-80
2023/04/25 02:15:22;;;;;;;6.75;2.85;;;;;;;4.30;97.55;101171.13;6069271;23;20066;-80
2023/04/25 02:17:56;;;;;;;10.77;2.72;;;;;;;4.26;97.65;101172.28;6069234;23;20357;-80
2023/04/25 02:20:24;;;;;;;9.73;3.10;;;;;;;4.23;97.69;101176.44;6071963;23;20107;-80
2023/04/25 02:22:51;;;;;;;15.23;3.10;;;;;;;4.20;97.75;101176.47;6069494;23;20533;-80
2023/04/25 02:25:20;;;;;;;9.82;2.63;;;;;;;4.17;97.99;101179.88;6071258;23;20020;-80
2023/04/25 02:27:48;;;;;;;9.43;3.00;;;;;;;4.12;97.98;101175.00;6068961;23;20023;-80
2023/04/25 02:30:15;;;;;;;8.95;2.90;;;;;;;4.08;98.01;101177.63;6068438;23;20393;-80
2023/04/25 02:32:42;;;;;;;11.73;3.10;;;;;;;4.05;98.19;101175.03;6069546;23;20019;-80
2023/04/25 02:35:09;;;;;;;14.73;3.00;;;;;;;4.01;98.33;101180.31;6069291;23;20054;-80
2023/04/25 02:37:39;;;;;;;10.07;2.63;;;;;;;3.98;98.58;101181.84;6071551;23;20023;-80
2023/04/25 02:40:06;;;;;;;4.95;2.70;;;;;;;3.96;98.72;101180.72;6070578;23;20023;-80
2023/04/25 02:42:33;;;;;;;10.15;3.03;;;;;;;3.95;98.62;101184.50;6069408;23;20024;-80
2023/04/25 02:45:00;;;;;;;7.97;2.13;;;;;;;3.94;98.88;101186.38;6070491;23;20015;-80
2023/04/25 02:47:27;;;;;;;9.20;2.47;;;;;;;3.94;98.80;101183.00;6071270;23;20167;-79
2023/04/25 02:49:53;;;;;;;12.32;3.08;;;;;;;3.92;98.95;101180.00;6045437;23;20027;-80
2023/04/25 02:52:21;;;;;;;10.70;2.45;;;;;;;3.92;99.36;101175.47;6069464;23;20019;-80
2023/04/25 02:54:55;;;;;;;12.13;2.70;;;;;;;3.94;99.21;101181.09;6068431;23;20019;-80
2023/04/25 02:57:22;;;;;;;9.88;2.58;;;;;;;3.95;99.35;101184.50;6069556;23;20035;-80
2023/04/25 02:59:48;;;;;;;19.73;3.40;;;;;;;3.94;99.52;101183.00;6069089;23;20087;-80
2023/04/25 03:02:15;;;;;;;10.30;3.30;;;;;;;3.95;99.51;101187.13;6045316;23;20020;-80
2023/04/25 03:04:41;;;;;;;19.30;2.88;;;;;;;3.95;99.33;101192.41;6069537;23;20022;-80
2023/04/25 03:07:08;;;;;;;10.52;2.83;;;;;;;3.94;99.49;101183.00;6069005;23;20075;-80
2023/04/25 03:09:35;;;;;;;5.47;2.67;;;;;;;3.91;99.72;101184.50;6070561;23;20514;-80
2023/04/25 03:12:02;;;;;;;11.00;2.85;;;;;;;3.91;99.80;101186.38;6068754;23;20105;-80
2023/04/25 03:14:28;;;;;;;6.80;2.95;;;;;;;3.87;99.75;101180.38;6071128;23;20015;-80
2023/04/25 03:16:55;;;;;;;11.95;3.63;;;;;;;3.84;99.84;101179.25;6069105;23;20465;-80
2023/04/25 03:19:22;;;;;;;8.82;2.90;;;;;;;3.82;100.00;101186.03;6045623;23;20446;-80
2023/04/25 03:21:49;;;;;;;11.60;3.08;;;;;;;3.78;100.00;101186.03;6069246;23;20112;-80
2023/04/25 03:24:15;;;;;;;11.65;3.55;;;;;;;3.78;100.00;101193.19;6070394;23;20103;-79
2023/04/25 03:26:42;;;;;;;13.02;2.90;;;;;;;3.75;100.00;101196.59;6045425;23;20048;-80
2023/04/25 03:29:08;;;;;;;9.02;3.03;;;;;;;3.72;100.00;101200.72;6070128;23;20328;-80
2023/04/25 03:31:37;;;;;;;8.32;3.35;;;;;;;3.69;100.00;101198.84;6069061;23;20015;-80
2023/04/25 03:34:03;;;;;;;8.85;3.10;;;;;;;3.68;100.00;101198.09;6070132;23;20019;-80
2023/04/25 03:36:30;;;;;;;19.15;3.38;;;;;;;3.69;100.00;101194.34;6069298;23;20072;-80
2023/04/25 03:38:56;;;;;;;9.20;3.13;;;;;;;3.71;100.00;101201.13;6069677;23;20075;-80
2023/04/25 03:41:23;;;;;;;10.38;3.15;;;;;;;3.74;100.00;101206.38;6069800;23;20359;-80
2023/04/25 03:43:53;;;;;;;5.53;2.53;;;;;;;3.78;100.00;101212.38;6070481;23;20015;-80
2023/04/25 03:46:20;;;;;;;14.55;3.30;;;;;;;3.83;100.00;101213.88;6070245;23;20019;-79
2023/04/25 03:48:48;;;;;;;7.75;3.05;;;;;;;3.85;100.00;101212.38;6069952;23;20030;-80
2023/04/25 03:51:20;;;;;;;8.60;1.88;;;;;;;3.88;100.00;101216.88;6070774;23;20023;-79
2023/04/25 03:53:47;;;;;;;8.05;2.70;;;;;;;3.92;100.00;101219.50;6071542;23;20064;-80
2023/04/25 03:56:35;;;;;;;10.02;2.78;;;;;;;3.97;99.38;101216.47;6070415;23;20043;-79
2023/04/25 03:59:12;;;;;;;7.75;2.67;;;;;;;3.99;99.46;101217.59;6069766;23;20046;-79
2023/04/25 04:01:38;;;;;;;8.05;2.40;;;;;;;4.01;99.24;101214.56;6070636;23;20298;-79
2023/04/25 04:04:05;;;;;;;7.75;2.38;;;;;;;4.03;98.97;101218.31;6071381;23;20327;-79
2023/04/25 04:06:33;;;;;;;8.95;2.70;;;;;;;4.03;98.71;101215.66;6070359;23;20031;-80
2023/04/25 04:09:15;;;;;;;5.00;2.50;;;;;;;4.06;98.41;101222.06;6069177;23;20503;-79
2023/04/25 04:11:43;;;;;;;6.03;2.28;;;;;;;4.09;98.04;101231.84;6070291;23;20102;-79
2023/04/25 04:14:10;;;;;;;6.45;2.25;;;;;;;4.11;98.03;101236.72;6069547;23;20020;-79
2023/04/25 04:16:40;;;;;;;10.03;2.23;;;;;;;4.10;98.10;101230.72;6070246;23;20083;-80
2023/04/25 04:19:07;;;;;;;8.13;2.88;;;;;;;4.11;98.03;101234.09;6069374;23;20303;-80
2023/04/25 04:21:36;;;;;;;10.88;2.35;;;;;;;4.11;98.10;101236.72;6070027;23;20023;-80
2023/04/25 04:24:03;;;;;;;7.25;1.88;;;;;;;4.12;97.48;101236.34;6068708;23;20019;-80
2023/04/25 04:26:38;;;;;;;6.25;2.70;;;;;;;4.13;97.18;101234.47;6069804;23;20469;-79
2023/04/25 04:29:22;;;;;;;9.52;2.22;;;;;;;4.15;97.08;101232.94;6071726;23;20027;-80
2023/04/25 04:32:00;;;;;;;7.90;2.10;;;;;;;4.17;97.29;101235.19;6069377;23;20378;-79
2023/04/25 04:34:28;;;;;;;5.93;1.77;;;;;;;4.17;97.04;101235.94;6069969;23;20102;-80
2023/04/25 04:36:55;;;;;;;8.68;2.10;;;;;;;4.18;96.56;101236.69;6068970;23;20016;-80
2023/04/25 04:39:22;;;;;;;11.70;2.30;;;;;;;4.19;96.53;101246.13;6072133;23;20080;-79
2023/04/25 04:42:01;;;;;;;10.32;2.08;;;;;;;4.20;95.85;101247.63;6069197;23;20020;-80
2023/04/25 04:44:58;;;;;;;5.47;1.85;;;;;;;4.21;95.05;101246.47;6054529;23;20514;-79
2023/04/25 04:47:39;;;;;;;5.07;1.70;;;;;;;4.24;95.61;101248.34;6069986;23;20023;-80
2023/04/25 04:50:16;;;;;;;6.32;1.80;;;;;;;4.26;94.63;101251.34;6069772;23;20075;-79
2023/04/25 04:53:04;;;;;;;12.73;2.85;;;;;;;4.27;94.54;101258.88;6069619;23;20054;-80
2023/04/25 04:55:44;;;;;;;6.53;2.20;;;;;;;4.30;94.23;101263.38;6070334;23;20467;-79
2023/04/25 04:58:39;;;;;;;9.77;1.85;;;;;;;4.33;94.23;101270.53;6039830;23;20106;-80
2023/04/25 05:01:25;;;;;;;5.45;1.50;;;;;;;4.39;94.16;101264.88;6040305;23;20079;-80
2023/04/25 05:04:03;;;;;;;5.78;1.80;;;;;;;4.41;94.36;101278.38;6015870;23;20379;-80
2023/04/25 05:06:45;;;;;;;5.22;2.13;;;;;;;4.44;94.33;101277.63;6015788;23;20463;-80
2023/04/25 05:09:27;;;;;;;10.52;2.22;;;;;;;4.44;94.26;101281.00;6016083;23;20027;-80
2023/04/25 05:12:05;;;;;;;5.72;2.00;;;;;;;4.46;94.22;101289.28;6015471;23;20027;-80
2023/04/25 05:14:50;;;;;;;6.20;1.70;;;;;;;4.47;93.78;101285.53;6039548;23;20033;-80
2023/04/25 05:17:34;;;;;;;7.85;1.67;;;;;;;4.49;94.00;101290.41;5995954;23;20068;-80
2023/04/25 05:20:20;;;;;;;7.20;2.80;;;;;;;4.50;94.23;101297.94;6039481;23;20525;-80
2023/04/25 05:22:49;;;;;;;8.90;2.35;;;;;;;4.54;94.34;101297.91;6039623;23;20421;-81
2023/04/25 05:25:20;;;;;;;5.55;1.85;;;;;;;4.56;94.24;101301.69;6015997;23;20027;-81
2023/04/25 05:27:58;;;;;;;12.40;1.95;;;;;;;4.58;94.05;101304.69;6038963;23;20053;-81
2023/04/25 05:30:39;;;;;;;5.18;1.92;;;;;;;4.60;94.22;101304.31;6016157;23;20028;-81
2023/04/25 05:33:14;;;;;;;7.30;1.85;;;;;;;4.65;94.15;101304.66;6039680;23;20084;-81
2023/04/25 05:35:41;;;;;;;8.07;2.20;;;;;;;4.71;93.59;101309.53;6052484;23;20071;-80
2023/04/25 05:38:08;;;;;;;7.40;2.00;;;;;;;4.71;93.42;101314.81;6070954;23;20083;-80
2023/04/25 05:40:54;;;;;;;12.55;2.03;;;;;;;4.76;93.08;101317.78;6070704;23;20119;-80
2023/04/25 05:43:59;;;;;;;3.72;1.55;;;;;;;4.82;92.73;101316.22;6064112;23;20023;-80
2023/04/25 05:46:32;;;;;;;10.10;2.25;;;;;;;4.86;92.10;101322.25;6070709;23;20091;-81
2023/04/25 05:49:22;;;;;;;8.90;1.90;;;;;;;4.92;91.74;101318.06;6067018;23;20024;-80
2023/04/25 05:52:19;;;;;;;3.65;1.55;;;;;;;4.99;91.86;101331.22;6070304;23;20020;-80
2023/04/25 05:55:17;;;;;;;5.47;1.55;;;;;;;5.06;91.54;101335.72;6063795;23;20031;-81
2023/04/25 05:57:44;;;;;;;6.55;1.80;;;;;;;5.11;91.73;101340.59;6070340;23;20019;-81
2023/04/25 06:00:14;;;;;;;4.03;1.52;;;;;;;5.18;91.81;101337.91;6069510;23;20024;-81
2023/04/25 06:02:43;;;;;;;4.35;1.45;;;;;;;5.22;91.20;101345.78;6070153;23;20429;-80
2023/04/25 06:05:12;;;;;;;6.75;2.03;;;;;;;5.29;91.03;101343.84;6069089;23;20052;-78
2023/04/25 06:07:39;;;;;;;7.90;1.70;;;;;;;5.40;90.88;101353.56;6070334;23;20019;-81
2023/04/25 06:10:06;;;;;;;5.78;2.03;;;;;;;5.51;90.19;101351.63;6069970;23;20019;-82
2023/04/25 06:12:33;;;;;;;5.40;2.15;;;;;;;5.57;88.99;101353.47;6072218;23;20087;-79
2023/04/25 06:15:00;;;;;;;7.53;1.60;;;;;;;5.64;88.34;101363.94;6069781;23;20055;-83
2023/04/25 06:17:30;;;;;;;5.35;1.63;;;;;;;5.72;87.75;101363.88;6070216;23;20023;-78
2023/04/25 06:19:57;;;;;;;7.93;1.65;;;;;;;5.80;87.25;101366.09;6069294;23;20026;-79
2023/04/25 06:22:24;;;;;;;5.38;1.50;;;;;;;5.89;86.92;101363.78;6070579;23;20023;-80
2023/04/25 06:24:50;;;;;;;7.70;1.63;;;;;;;6.03;86.25;101363.63;6070285;23;20436;-80
2023/04/25 06:27:16;;;;;;;6.60;1.75;;;;;;;6.16;85.55;101365.78;6070117;23;20505;-79
2023/04/25 06:29:43;;;;;;;4.57;1.38;;;;;;;6.24;84.72;101367.94;6070298;23;20059;-78
2023/04/25 06:32:09;;;;;;;6.78;1.80;;;;;;;6.32;84.62;101368.63;6069905;23;20075;-78
2023/04/25 06:34:36;;;;;;;12.02;1.75;;;;;;;6.50;83.45;101373.72;6069665;23;20083;-79
2023/04/25 06:37:02;;;;;;;8.32;1.75;;;;;;;6.81;82.85;101372.56;6069950;23;20023;-79
2023/04/25 06:39:29;;;;;;;11.32;1.70;;;;;;;6.96;82.27;101367.84;6070272;23;20026;-78
2023/04/25 06:41:55;;;;;;;9.07;2.20;;;;;;;6.96;81.37;101376.53;6069949;23;20019;-78
2023/04/25 06:44:40;;;;;;;3.13;1.77;;;;;;;6.96;80.56;101373.16;6070239;23;20343;-82
2023/04/25 06:47:08;;;;;;;11.05;1.90;;;;;;;6.98;80.96;101381.44;6069266;23;20075;-77
2023/04/25 06:49:35;;;;;;;5.75;1.83;;;;;;;6.98;79.90;101382.19;6070097;23;20429;-78
2023/04/25 06:52:02;;;;;;;7.20;1.83;;;;;;;6.93;80.07;101379.22;6069791;23;20027;-79
2023/04/25 06:54:29;;;;;;;4.90;1.58;;;;;;;6.96;79.18;101389.03;6094391;23;20024;-79
2023/04/25 06:57:04;;;;;;;6.95;1.85;;;;;;;6.95;79.04;101393.56;6069914;23;20525;-78
2023/04/25 06:59:32;;;;;;;5.82;1.38;;;;;;;7.03;79.61;101392.34;6070079;23;20023;-79
2023/04/25 07:01:59;;;;;;;6.78;1.70;;;;;;;7.14;78.54;101394.09;6069162;23;20027;-79
2023/04/25 07:04:26;;;;;;;6.93;1.65;;;;;;;7.20;77.57;101397.75;6070205;23;20024;-79
2023/04/25 07:06:55;;;;;;;9.35;1.50;;;;;;;7.20;76.97;101395.88;6069784;23;20019;-77
2023/04/25 07:09:45;;;;;;;5.78;1.60;;;;;;;7.22;76.44;101404.16;6063473;23;20023;-78
2023/04/25 07:12:11;;;;;;;5.75;1.60;;;;;;;7.27;76.95;101406.38;6069743;23;20030;-77
2023/04/25 07:14:39;;;;;;;4.00;1.40;;;;;;;7.32;75.68;101399.88;6069959;23;20047;-77
2023/04/25 07:17:06;;;;;;;6.80;1.60;;;;;;;7.36;74.88;101408.53;6068398;23;20023;-76
2023/04/25 07:19:34;;;;;;;5.05;1.48;;;;;;;7.34;74.70;101411.56;6069938;23;20035;-78
2023/04/25 07:22:01;;;;;;;4.90;1.52;;;;;;;7.34;74.37;101421.41;6071317;23;20068;-76
2023/04/25 07:24:28;;;;;;;7.80;1.50;;;;;;;7.58;74.60;101414.25;6069989;23;20023;-82
2023/04/25 07:26:56;;;;;;;5.93;1.42;;;;;;;8.00;74.49;101424.16;6045980;23;20023;-79
2023/04/25 07:29:30;;;;;;;4.28;1.50;;;;;;;8.32;72.00;101425.53;6047660;23;20043;-76
2023/04/25 07:31:59;;;;;;;6.38;1.73;;;;;;;8.51;70.72;101427.47;6068546;23;20030;-79
2023/04/25 07:34:25;;;;;;;9.00;1.27;;;;;;;8.53;70.17;101432.34;6069906;23;20462;-77
2023/04/25 07:36:53;;;;;;;6.95;1.20;;;;;;;8.60;70.12;101432.22;6046047;23;20062;-78
2023/04/25 07:39:22;;;;;;;4.75;1.27;;;;;;;8.56;70.17;101428.88;6069366;23;20023;-77
2023/04/25 07:41:49;;;;;;;5.07;1.20;;;;;;;8.52;69.07;101428.22;6093961;23;20402;-78
2023/04/25 07:44:25;;;;;;;6.72;1.45;;;;;;;8.49;68.31;101445.69;6070156;23;20029;-77
2023/04/25 07:46:52;;;;;;;10.63;1.85;;;;;;;8.56;68.82;101432.28;6093334;23;20098;-78
2023/04/25 07:49:18;;;;;;;5.57;1.40;;;;;;;8.64;67.42;101446.19;6069406;23;20023;-84
2023/04/25 07:51:45;;;;;;;6.82;1.45;;;;;;;8.72;66.27;101455.50;6070295;23;20421;-80
2023/04/25 07:54:15;;;;;;;5.10;1.58;;;;;;;8.74;66.73;101447.88;6093827;23;20156;-90
2023/04/25 07:56:46;;;;;;;4.63;1.25;;;;;;;8.81;66.12;101450.38;6071202;23;20019;-81
2023/04/25 07:59:22;;;;;;;3.75;1.30;;;;;;;8.82;66.71;101449.22;6069091;23;20024;-82
2023/04/25 08:01:49;;;;;;;5.68;1.30;;;;;;;8.76;67.02;101461.50;6069295;23;20023;-79
2023/04/25 08:04:17;;;;;;;8.15;1.85;;;;;;;8.80;65.16;101464.81;6069176;23;20490;-81
2023/04/25 08:06:53;;;;;;;3.20;1.38;;;;;;;8.95;63.63;101459.97;6069961;23;20079;-80
2023/04/25 08:09:24;;;;;;;2.28;1.15;;;;;;;9.19;63.28;101463.28;6069903;23;20019;-79
2023/04/25 08:11:52;;;;;;;5.68;1.58;;;;;;;9.51;62.82;101468.66;6069309;23;20019;-81
2023/04/25 08:14:25;;;;;;;4.50;1.58;;;;;;;9.61;62.43;101470.31;6067871;23;20883;-81
2023/04/25 08:16:51;;;;;;;6.28;1.20;;;;;;;9.73;62.70;101471.56;6069264;23;20362;-82
2023/04/25 08:19:19;;;;;;;6.15;1.30;;;;;;;9.82;63.18;101481.63;6045257;23;20023;-81
2023/04/25 08:21:46;;;;;;;4.13;1.45;;;;;;;9.83;61.98;101489.19;6069302;23;20047;-81
2023/04/25 08:24:17;;;;;;;2.92;0.98;;;;;;;9.53;61.40;101492.16;6068820;23;20109;-81
2023/04/25 08:26:44;;;;;;;3.47;1.08;;;;;;;9.01;61.82;101512.22;6071207;23;20019;-82
2023/04/25 08:29:15;;;;;;;9.00;1.33;;;;;;;8.57;63.59;101504.69;6046624;23;20457;-81
2023/04/25 08:31:42;;;;;;;9.63;1.67;;;;;;;8.43;65.34;101505.69;6070448;23;20051;-81
2023/04/25 08:34:09;;;;;;;4.40;0.90;;;;;;;8.39;65.57;101515.63;6070150;23;20307;-81
2023/04/25 08:36:44;;;;;;;3.45;0.90;;;;;;;8.37;64.03;101511.88;6071023;23;20023;-79
2023/04/25 08:39:38;;;;;;;4.40;1.00;;;;;;;8.48;64.20;101513.19;6074458;23;20019;-79
2023/04/25 08:42:27;;;;;;;1.38;0.82;;;;;;;8.52;63.20;101510.47;6071902;23;20085;-82
2023/04/25 08:44:55;;;;;;;3.75;0.88;;;;;;;8.58;63.01;101512.25;6069522;23;20079;-81
2023/04/25 08:47:28;;;;;;;6.78;1.20;;;;;;;8.71;63.33;101524.94;6070347;23;20369;-80
2023/04/25 08:49:57;;;;;;;2.67;1.07;;;;;;;8.72;61.37;101519.22;6070556;23;20024;-82
2023/04/25 08:52:24;;;;;;;3.13;1.10;;;;;;;8.82;61.86;101522.81;6072408;23;20030;-82
2023/04/25 08:54:52;;;;;;;4.05;1.25;;;;;;;8.95;61.11;101529.78;6094903;23;20072;-81
2023/04/25 08:57:20;;;;;;;3.70;1.20;;;;;;;9.38;61.19;101531.56;6070391;23;20400;-81
2023/04/25 08:59:49;;;;;;;4.28;1.25;;;;;;;9.74;60.17;101530.81;6046954;23;20034;-81
2023/04/25 09:02:18;;;;;;;3.50;1.45;;;;;;;10.24;60.41;101541.06;6070016;23;20432;-81
2023/04/25 09:04:49;;;;;;;3.08;1.23;;;;;;;10.25;57.88;101551.31;6071564;23;20027;-90
2023/04/25 09:07:18;;;;;;;4.32;1.02;;;;;;;10.14;57.31;101548.09;6070660;23;20019;-84
2023/04/25 09:09:45;;;;;;;7.18;1.17;;;;;;;10.27;56.85;101556.97;6070390;23;20024;-80
2023/04/25 09:12:14;;;;;;;4.50;1.13;;;;;;;10.36;55.97;101553.72;6075141;23;20027;-81
2023/04/25 09:14:42;;;;;;;7.05;3.47;;;;;;;10.46;57.57;101557.25;6070572;23;20099;-81
2023/04/25 09:17:19;;;;;;;2.50;1.50;;;;;;;11.09;56.33;101556.75;6069900;23;20046;-82
2023/04/25 09:19:48;;;;;;;9.23;1.67;;;;;;;11.56;54.97;101563.03;6070270;23;20039;-80
2023/04/25 09:22:22;;;;;;;5.85;1.20;;;;;;;11.91;54.78;101563.91;6070254;23;20478;-82
2023/04/25 09:24:50;;;;;;;8.48;1.25;;;;;;;11.60;54.69;101563.66;6071933;23;20019;-82
2023/04/25 09:27:20;;;;;;;4.72;1.35;;;;;;;11.10;54.02;101563.59;6069249;23;20446;-82
2023/04/25 09:29:57;;;;;;;3.50;1.17;;;;;;;10.85;55.66;101565.00;6070288;23;20466;-82
2023/04/25 09:32:24;;;;;;;3.55;1.27;;;;;;;10.91;55.07;101570.56;6070155;23;20054;-82
2023/04/25 09:34:56;;;;;;;5.32;1.17;;;;;;;10.85;55.57;101572.97;6072249;23;20020;-82
2023/04/25 09:37:29;;;;;;;2.42;1.15;;;;;;;10.87;56.56;101577.88;6070697;23;20019;-82
2023/04/25 09:40:30;;;;;;;4.32;1.40;;;;;;;11.02;55.35;101585.09;6071835;23;20457;-82
2023/04/25 09:43:25;;;;;;;3.45;0.98;;;;;;;11.03;56.32;101578.59;6069819;23;20098;-82
2023/04/25 09:45:57;;;;;;;3.38;1.20;;;;;;;10.78;56.11;101602.47;6070406;23;20054;-83
2023/04/25 09:48:26;;;;;;;2.25;0.98;;;;;;;10.30;57.61;101601.38;6070726;23;20019;-82
2023/04/25 09:51:07;;;;;;;2.80;1.20;;;;;;;9.92;59.01;101606.38;6070339;23;20030;-82
2023/04/25 09:53:39;;;;;;;4.43;1.20;;;;;;;9.81;60.36;101615.75;6072365;23;20015;-82
2023/04/25 09:56:19;;;;;;;2.85;1.10;;;;;;;9.68;59.82;101629.66;6069006;23;20030;-80
2023/04/25 09:58:50;;;;;;;3.50;1.30;;;;;;;9.74;60.24;101629.19;6070084;23;20031;-81
2023/04/25 10:01:16;;;;;;;3.47;0.90;;;;;;;9.86;59.57;101624.00;6069594;23;20019;-81
2023/04/25 10:04:00;;;;;;;2.75;1.10;;;;;;;10.00;59.53;101628.22;6070072;23;20022;-82
2023/04/25 10:06:53;;;;;;;4.47;1.08;;;;;;;10.21;59.08;101633.13;6069905;23;20110;-82
2023/04/25 10:09:21;;;;;;;3.40;0.93;;;;;;;10.34;59.03;101627.91;6093866;23;20024;-80
2023/04/25 10:11:50;;;;;;;7.40;0.90;;;;;;;10.61;57.99;101635.63;6071195;23;20023;-82
2023/04/25 10:14:18;;;;;;;4.93;0.80;;;;;;;10.84;56.71;101629.34;6069510;23;20019;-83
2023/04/25 10:16:46;;;;;;;3.67;0.80;;;;;;;10.98;55.47;101627.06;6071727;23;20102;-81
2023/04/25 10:19:13;;;;;;;4.03;1.30;;;;;;;11.09;54.83;101626.78;6072173;23;20051;-88
2023/04/25 10:21:52;;;;;;;3.63;1.08;;;;;;;11.12;55.36;101630.53;6072667;23;20015;-83
2023/04/25 10:24:20;;;;;;;2.67;1.00;;;;;;;11.21;54.26;101626.06;6071713;23;20446;-85
2023/04/25 10:26:48;;;;;;;3.20;1.48;;;;;;;11.35;52.49;101620.34;6071577;23;20027;-83
2023/04/25 10:29:23;;;;;;;2.83;1.15;;;;;;;11.50;52.74;101618.06;6071793;23;20025;-81
2023/04/25 10:31:49;;;;;;;4.00;0.90;;;;;;;11.48;50.20;101630.31;6072048;23;20446;-80
2023/04/25 10:34:17;;;;;;;3.72;1.00;;;;;;;11.36;48.84;101624.53;6071532;23;20189;-82
2023/04/25 10:36:51;;;;;;;3.60;1.17;;;;;;;11.33;50.01;101628.03;6071899;23;20347;-79
2023/04/25 10:39:27;;;;;;;1.33;0.80;;;;;;;11.34;49.96;101624.19;6071442;23;20309;-80
2023/04/25 10:41:58;;;;;;;2.35;1.13;;;;;;;11.38;49.44;101618.75;6072108;23;20039;-79
2023/04/25 10:44:29;;;;;;;3.10;0.98;;;;;;;11.51;50.53;101624.88;6071909;23;20020;-79
2023/04/25 10:46:57;;;;;;;6.50;0.88;;;;;;;11.72;49.02;101625.44;6071668;23;20024;-79
2023/04/25 10:49:35;;;;;;;2.10;1.30;;;;;;;11.91;49.76;101632.53;6071850;23;20078;-80
2023/04/25 10:52:29;;;;;;;4.00;1.30;;;;;;;12.01;49.83;101615.44;6071120;23;20030;-79
2023/04/25 10:54:57;;;;;;;4.00;1.20;;;;;;;12.30;48.22;101631.34;6065375;23;20785;-81
2023/04/25 10:57:44;;;;;;;2.83;1.27;;;;;;;12.62;49.06;101635.66;6071787;23;20481;-84
2023/04/25 11:00:13;;;;;;;2.95;1.05;;;;;;;12.73;48.14;101622.69;6097965;23;20014;-77
2023/04/25 11:02:46;;;;;;;1.50;1.10;;;;;;;12.39;48.89;101628.75;6100551;23;20014;-77
2023/04/25 11:05:32;;;;;;;7.68;1.45;;;;;;;12.03;49.57;101623.75;6100171;23;20019;-79
2023/04/25 11:08:11;;;;;;;8.30;1.20;;;;;;;11.78;49.84;101639.75;6099944;23;20070;-79
2023/04/25 11:10:40;;;;;;;4.88;1.45;;;;;;;11.67;50.33;101634.69;6100685;23;20015;-79
2023/04/25 11:13:06;;;;;;;4.13;1.30;;;;;;;11.32;53.00;101641.78;6100319;23;20019;-79
2023/04/25 11:15:33;;;;;;;5.50;1.10;;;;;;;10.90;55.59;101655.03;6100761;23;20011;-81
2023/04/25 11:17:59;;;;;;;2.85;1.17;;;;;;;10.85;56.79;101660.13;6100298;23;20079;-79
2023/04/25 11:20:28;;;;;;;6.50;0.98;;;;;;;10.78;57.82;101666.41;6100300;23;20880;-80
2023/04/25 11:22:57;;;;;;;4.43;1.13;;;;;;;10.45;56.91;101660.31;6100183;23;20015;-80
2023/04/25 11:25:24;;;;;;;5.60;0.95;;;;;;;10.25;58.90;101664.97;6100429;23;20019;-80
2023/04/25 11:27:57;;;;;;;2.15;0.93;;;;;;;10.09;58.76;101672.91;6100513;23;20018;-77
2023/04/25 11:30:25;;;;;;;1.90;1.08;;;;;;;9.92;59.54;101675.53;6074970;23;20074;-79
2023/04/25 11:32:52;;;;;;;2.85;0.98;;;;;;;9.96;60.77;101670.91;6100355;23;20083;-79
2023/04/25 11:35:22;;;;;;;2.95;1.10;;;;;;;9.89;60.77;101671.03;6099957;23;20330;-79
2023/04/25 11:37:50;;;;;;;3.13;1.20;;;;;;;9.83;60.16;101674.59;6099891;23;20058;-79
2023/04/25 11:40:16;;;;;;;10.07;1.10;;;;;;;9.83;59.69;101680.66;6099871;23;20015;-80
2023/04/25 11:42:44;;;;;;;5.28;1.35;;;;;;;9.83;59.31;101675.34;6100286;23;20468;-79
2023/04/25 11:45:11;;;;;;;3.03;1.02;;;;;;;9.90;57.24;101671.78;6099890;23;20041;-79
2023/04/25 11:47:39;;;;;;;2.25;1.17;;;;;;;9.95;56.29;101672.06;6099686;23;20027;-79